Time;durP1;ratioP1;P1;durP2;ratioP2;P2;SDS_P1;SDS_P2;PMS_P1;PMS_P2;Temp;Humidity;BMP_temperature;BMP_pressure;BME280_temperature;BME280_humidity;BME280_pressure;Samples;Min_cycle;Max_cycle;Signal;HPM_P1;HPM_P2
2020/12/05 00:01:16;;;;;;;18.65;5.15;;;;;;;-1.13;58.00;100851.63;10501982;28;20055;-52
2020/12/05 00:06:22;;;;;;;14.68;7.00;;;;;;;-1.22;58.18;100857.81;10502622;28;20062;-52
2020/12/05 00:11:27;;;;;;;17.05;6.65;;;;;;;-1.28;58.38;100861.34;10500080;28;20397;-59
2020/12/05 00:16:29;;;;;;;17.55;6.43;;;;;;;-1.41;58.83;100858.13;10501736;28;20072;-53
2020/12/05 00:21:31;;;;;;;12.63;5.05;;;;;;;-1.49;59.16;100856.56;10500782;28;20076;-51
2020/12/05 00:26:33;;;;;;;8.60;3.83;;;;;;;-1.51;58.71;100861.75;10500787;28;20777;-51
2020/12/05 00:31:35;;;;;;;16.02;5.40;;;;;;;-1.55;59.00;100879.88;10499631;28;20056;-51
2020/12/05 00:36:37;;;;;;;16.00;6.72;;;;;;;-1.44;58.94;100873.66;10500607;28;20048;-54
2020/12/05 00:41:39;;;;;;;14.52;6.25;;;;;;;-1.46;58.87;100872.81;10500813;28;20048;-55
2020/12/05 00:46:41;;;;;;;12.18;4.88;;;;;;;-1.50;59.13;100871.19;10500683;28;20076;-52
2020/12/05 00:51:48;;;;;;;18.02;6.78;;;;;;;-1.42;58.87;100876.19;10499716;28;20055;-53
2020/12/05 00:56:52;;;;;;;16.35;7.75;;;;;;;-1.43;58.41;100859.88;10501744;28;20064;-52
2020/12/05 01:01:54;;;;;;;21.13;7.78;;;;;;;-1.42;58.31;100863.28;10498439;28;20068;-52
2020/12/05 01:06:57;;;;;;;18.17;6.03;;;;;;;-1.55;58.40;100872.13;10495206;28;20054;-53
2020/12/05 01:11:59;;;;;;;19.52;6.97;;;;;;;-1.55;58.25;100865.25;10498740;28;20063;-52
2020/12/05 01:17:01;;;;;;;16.45;7.50;;;;;;;-1.58;58.47;100857.56;10499155;28;20112;-52
2020/12/05 01:22:03;;;;;;;16.55;7.70;;;;;;;-1.62;58.48;100871.38;10500691;28;20048;-53
2020/12/05 01:27:05;;;;;;;18.88;7.60;;;;;;;-1.48;58.29;100869.44;10500448;28;20071;-58
2020/12/05 01:32:07;;;;;;;21.80;8.25;;;;;;;-1.26;57.80;100863.88;10502434;28;20056;-59
2020/12/05 01:37:10;;;;;;;15.80;6.22;;;;;;;-1.18;57.52;100862.00;10502039;28;20036;-52
2020/12/05 01:42:12;;;;;;;24.58;8.32;;;;;;;-1.10;57.03;100867.91;10497224;28;20048;-52
2020/12/05 01:47:14;;;;;;;24.50;8.00;;;;;;;-1.17;56.75;100862.00;10497233;28;20036;-51
2020/12/05 01:52:18;;;;;;;24.90;8.98;;;;;;;-1.24;57.33;100864.72;10498946;28;20048;-52
2020/12/05 01:57:21;;;;;;;23.20;9.15;;;;;;;-1.28;56.95;100855.34;10499403;28;20551;-52
2020/12/05 02:02:23;;;;;;;18.33;7.63;;;;;;;-1.19;57.04;100866.34;10499986;28;20044;-54
2020/12/05 02:07:38;;;;;;;21.40;9.73;;;;;;;-1.16;56.54;100865.44;10498931;28;20044;-57
2020/12/05 02:12:59;;;;;;;22.40;9.18;;;;;;;-1.34;56.44;100869.19;10499860;28;20044;-52
2020/12/05 02:18:03;;;;;;;18.85;6.32;;;;;;;-1.37;56.42;100886.44;10500904;28;20094;-58
2020/12/05 02:23:11;;;;;;;18.65;7.53;;;;;;;-1.48;56.62;100884.91;10497554;28;20045;-52
2020/12/05 02:28:16;;;;;;;18.23;8.07;;;;;;;-1.51;56.26;100889.25;10497493;28;20048;-52
2020/12/05 02:33:19;;;;;;;21.88;7.63;;;;;;;-1.55;56.39;100883.28;10499834;28;20135;-52
2020/12/05 02:38:26;;;;;;;24.30;8.05;;;;;;;-1.64;56.26;100886.03;10502457;28;20166;-52
2020/12/05 02:43:28;;;;;;;19.08;7.43;;;;;;;-1.67;56.41;100886.91;10504423;28;20044;-52
2020/12/05 02:48:29;;;;;;;25.02;8.30;;;;;;;-1.65;55.99;100892.91;10504066;28;20052;-52
2020/12/05 02:53:32;;;;;;;23.15;9.73;;;;;;;-1.68;55.67;100899.84;10504612;28;20052;-54
2020/12/05 02:58:34;;;;;;;18.40;8.52;;;;;;;-1.76;55.57;100896.53;10505023;28;20072;-52
2020/12/05 03:03:35;;;;;;;19.17;8.25;;;;;;;-1.85;55.40;100889.78;10504518;28;20048;-56
2020/12/05 03:08:38;;;;;;;16.17;6.53;;;;;;;-1.99;55.36;100882.28;10503963;28;20052;-51
2020/12/05 03:13:39;;;;;;;12.00;4.53;;;;;;;-2.14;54.87;100883.34;10505678;28;20074;-61
2020/12/05 03:18:41;;;;;;;16.10;5.60;;;;;;;-2.39;55.31;100890.56;10504045;28;20037;-53
2020/12/05 03:23:46;;;;;;;12.07;5.25;;;;;;;-2.43;55.66;100895.75;10504471;28;20536;-53
2020/12/05 03:28:47;;;;;;;19.42;6.32;;;;;;;-2.52;55.30;100898.44;10505858;28;20064;-53
2020/12/05 03:33:49;;;;;;;18.98;7.22;;;;;;;-2.59;55.83;100897.66;10504456;28;20110;-52
2020/12/05 03:38:53;;;;;;;14.07;6.07;;;;;;;-2.63;55.66;100901.16;10502325;28;20056;-54
2020/12/05 03:43:55;;;;;;;15.15;6.03;;;;;;;-2.66;55.89;100907.19;10502488;28;20096;-51
2020/12/05 03:48:56;;;;;;;22.00;8.13;;;;;;;-2.71;55.77;100902.94;10501827;28;20045;-51
2020/12/05 03:53:59;;;;;;;24.73;8.88;;;;;;;-2.79;56.26;100891.03;10501632;28;20065;-59
2020/12/05 03:59:01;;;;;;;16.05;5.85;;;;;;;-2.88;56.35;100909.16;10503766;28;20079;-52
2020/12/05 04:04:02;;;;;;;14.68;5.82;;;;;;;-2.97;56.62;100909.25;10501586;28;20516;-53
2020/12/05 04:09:05;;;;;;;10.52;3.75;;;;;;;-3.04;56.56;100910.19;10501161;28;20041;-52
2020/12/05 04:14:07;;;;;;;18.70;6.13;;;;;;;-3.01;56.92;100903.28;10501023;28;20067;-51
2020/12/05 04:19:09;;;;;;;18.20;6.35;;;;;;;-3.02;57.09;100911.88;10504146;28;20048;-52
2020/12/05 04:24:11;;;;;;;11.05;5.57;;;;;;;-3.09;56.93;100917.09;10503865;28;20059;-53
2020/12/05 04:29:13;;;;;;;22.88;8.20;;;;;;;-3.16;57.68;100928.31;10486072;28;20045;-52
2020/12/05 04:34:15;;;;;;;15.70;5.35;;;;;;;-3.16;57.59;100930.88;10501194;28;20139;-60
2020/12/05 04:39:17;;;;;;;21.55;7.45;;;;;;;-3.16;57.62;100933.44;10500840;28;20041;-52
2020/12/05 04:44:20;;;;;;;26.10;8.60;;;;;;;-3.09;57.39;100945.38;10499059;28;20072;-52
2020/12/05 04:49:26;;;;;;;19.75;7.03;;;;;;;-3.15;57.36;100945.44;10499242;28;20044;-52
2020/12/05 04:54:28;;;;;;;18.67;6.13;;;;;;;-3.18;57.25;100950.59;10498808;28;20066;-53
2020/12/05 04:59:31;;;;;;;20.73;8.47;;;;;;;-3.13;57.31;100948.84;10498366;28;20101;-51
2020/12/05 05:04:32;;;;;;;19.15;7.82;;;;;;;-3.20;56.91;100942.91;10499698;28;20048;-51
2020/12/05 05:09:35;;;;;;;17.00;6.47;;;;;;;-3.31;57.36;100945.56;10498021;28;20060;-51
2020/12/05 05:14:37;;;;;;;19.33;8.50;;;;;;;-3.24;57.30;100947.22;10497840;28;20405;-52
2020/12/05 05:19:38;;;;;;;28.60;10.27;;;;;;;-3.24;56.77;100946.38;10502475;28;20044;-51
2020/12/05 05:24:58;;;;;;;20.30;7.47;;;;;;;-3.24;56.66;100956.66;10500159;28;20052;-53
2020/12/05 05:30:09;;;;;;;24.95;10.10;;;;;;;-3.31;56.34;100963.56;10484488;28;20048;-50
2020/12/05 05:35:13;;;;;;;26.15;9.23;;;;;;;-3.48;56.37;100978.25;10459261;28;20056;-51
2020/12/05 05:40:25;;;;;;;;;;;;;;;-3.79;56.43;100981.03;10505837;28;20072;-51
2020/12/05 05:45:27;;;;;;;23.13;9.95;;;;;;;-3.89;56.58;100987.09;10498317;28;19979;-50
2020/12/05 05:50:31;;;;;;;19.53;5.97;;;;;;;-3.83;56.85;100992.19;10497594;28;20041;-50
2020/12/05 05:55:43;;;;;;;23.83;7.43;;;;;;;-3.72;56.63;100985.28;10498194;28;20110;-53
2020/12/05 06:00:45;;;;;;;11.50;5.25;;;;;;;-3.57;56.44;101009.16;10498864;28;20452;-51
2020/12/05 06:05:49;;;;;;;18.57;5.97;;;;;;;-3.24;55.77;101013.22;10497897;28;20053;-51
2020/12/05 06:10:56;;;;;;;;;;;;;;;-2.82;54.67;101017.16;10498881;28;20151;-54
2020/12/05 06:15:59;;;;;;;17.85;6.97;;;;;;;-2.30;54.61;101009.78;10509191;28;19924;-53
2020/12/05 06:21:01;;;;;;;13.03;5.30;;;;;;;-1.83;53.66;101016.06;10505684;28;20048;-50
2020/12/05 06:26:07;;;;;;;16.90;6.35;;;;;;;-1.91;51.21;101013.56;10505542;28;20091;-50
2020/12/05 06:31:08;;;;;;;21.80;7.20;;;;;;;-2.57;50.99;101019.50;10505213;28;20079;-53
2020/12/05 06:36:36;;;;;;;19.08;7.25;;;;;;;-2.97;51.17;101019.03;10504806;28;20371;-51
2020/12/05 06:41:40;;;;;;;15.48;5.72;;;;;;;-3.34;50.83;101033.03;10504595;28;20393;-52
2020/12/05 06:46:54;;;;;;;15.63;5.57;;;;;;;-3.66;51.63;101028.09;10504855;28;20060;-50
2020/12/05 06:51:55;;;;;;;;;;;;;;;-3.75;51.70;101041.84;10505259;28;20052;-49
2020/12/05 06:57:12;;;;;;;7.50;3.38;;;;;;;-3.91;51.51;101042.75;10503725;28;20287;-51
2020/12/05 07:02:27;;;;;;;15.23;6.32;;;;;;;-3.90;51.80;101044.47;10504194;28;20040;-49
2020/12/05 07:07:32;;;;;;;14.50;6.03;;;;;;;-3.90;51.79;101047.06;10503763;28;20101;-51
2020/12/05 07:12:36;;;;;;;16.52;5.63;;;;;;;-3.75;51.95;101052.13;10502563;28;20082;-50
2020/12/05 07:17:38;;;;;;;18.08;5.10;;;;;;;-1.78;53.49;101053.81;10503778;28;20135;-51
2020/12/05 07:22:40;;;;;;;20.80;6.40;;;;;;;0.15;51.14;101047.13;10503033;28;20045;-53
2020/12/05 07:27:42;;;;;;;16.23;6.72;;;;;;;1.79;48.90;101049.22;10504415;28;20063;-54
2020/12/05 07:32:44;;;;;;;16.77;7.55;;;;;;;2.76;45.63;101047.22;10502994;28;20438;-54
2020/12/05 07:37:48;;;;;;;19.00;8.88;;;;;;;3.55;42.94;101053.28;10503314;28;20096;-53
2020/12/05 07:42:50;;;;;;;16.08;6.35;;;;;;;4.35;43.28;101050.41;10503528;28;20048;-51
2020/12/05 07:47:52;;;;;;;18.58;6.85;;;;;;;5.06;41.75;101049.31;10503633;28;20041;-51
2020/12/05 07:52:53;;;;;;;16.77;8.73;;;;;;;5.04;39.24;101047.69;10502541;28;20067;-50
2020/12/05 07:57:56;;;;;;;17.50;8.15;;;;;;;3.31;38.89;101044.56;10502756;28;20063;-51
2020/12/05 08:03:12;;;;;;;16.20;7.68;;;;;;;1.77;40.41;101058.78;10501773;28;20048;-51
2020/12/05 08:08:17;;;;;;;14.50;6.60;;;;;;;0.78;40.62;101058.69;10500843;28;20048;-53
2020/12/05 08:13:26;;;;;;;18.92;8.05;;;;;;;0.30;41.75;101059.72;10500617;28;20044;-50
2020/12/05 08:18:28;;;;;;;19.92;7.90;;;;;;;-0.13;42.04;101062.34;10501194;28;20500;-51
2020/12/05 08:23:32;;;;;;;16.95;7.50;;;;;;;-0.45;42.55;101060.38;10505341;28;20048;-50
2020/12/05 08:28:40;;;;;;;16.23;6.03;;;;;;;-0.77;43.18;101049.72;10501648;28;20044;-53
2020/12/05 08:33:42;;;;;;;24.02;8.48;;;;;;;-0.90;43.75;101055.94;10506195;28;20048;-54
2020/12/05 08:38:45;;;;;;;16.02;6.18;;;;;;;-1.00;44.02;101052.66;10500949;28;20389;-50
2020/12/05 08:43:47;;;;;;;13.40;6.10;;;;;;;-1.17;44.07;101049.50;10500596;28;20060;-50
2020/12/05 08:48:50;;;;;;;20.60;8.60;;;;;;;-0.70;44.28;101047.88;10502401;28;20049;-50
2020/12/05 08:54:03;;;;;;;19.85;7.35;;;;;;;1.95;44.09;101044.44;10503323;28;20052;-50
2020/12/05 08:59:06;;;;;;;17.07;6.17;;;;;;;4.39;40.34;101042.41;10501244;28;20131;-50
2020/12/05 09:04:11;;;;;;;13.82;5.75;;;;;;;5.46;36.90;101033.78;10498990;28;20053;-51
2020/12/05 09:09:13;;;;;;;16.23;6.22;;;;;;;6.39;35.73;101021.78;10459010;28;20048;-52
2020/12/05 09:14:25;;;;;;;15.23;6.75;;;;;;;7.37;34.47;101024.84;10498696;28;20076;-50
2020/12/05 09:19:28;;;;;;;20.50;8.57;;;;;;;8.82;34.85;101022.38;10498892;28;20053;-51
2020/12/05 09:24:42;;;;;;;16.67;7.65;;;;;;;9.83;32.52;101019.06;10498157;28;20135;-52
2020/12/05 09:29:44;;;;;;;17.98;8.02;;;;;;;9.49;30.74;101018.47;10498332;28;20074;-51
2020/12/05 09:34:46;;;;;;;19.70;7.53;;;;;;;9.48;31.26;101014.13;10498154;28;20146;-53
2020/12/05 09:39:47;;;;;;;19.08;9.50;;;;;;;9.68;30.62;101007.69;10498533;28;20056;-54
2020/12/05 09:44:50;;;;;;;18.85;7.68;;;;;;;8.91;30.79;101020.06;10498133;28;20077;-51
2020/12/05 09:49:52;;;;;;;21.90;8.57;;;;;;;7.43;31.69;101012.41;10497267;28;20385;-53
2020/12/05 09:54:54;;;;;;;18.70;7.78;;;;;;;5.67;32.16;101013.75;10497648;28;20115;-53
2020/12/05 09:59:56;;;;;;;18.92;7.20;;;;;;;3.97;32.90;101023.19;10497757;28;20131;-51
2020/12/05 10:04:58;;;;;;;22.63;8.38;;;;;;;2.78;34.41;101025.56;10497302;28;20537;-51
2020/12/05 10:10:00;;;;;;;24.98;8.93;;;;;;;2.10;35.29;101029.34;10497210;28;20048;-53
2020/12/05 10:15:05;;;;;;;25.00;8.77;;;;;;;1.58;35.76;101026.47;10497209;28;20052;-53
2020/12/05 10:20:07;;;;;;;25.83;9.18;;;;;;;1.25;36.80;101026.44;10496997;28;20106;-50
2020/12/05 10:25:09;;;;;;;20.75;8.45;;;;;;;0.86;36.77;101030.88;10496456;28;20055;-50
2020/12/05 10:30:11;;;;;;;21.70;6.93;;;;;;;0.51;37.75;101023.94;10496794;28;20051;-50
2020/12/05 10:35:14;;;;;;;13.65;5.90;;;;;;;0.36;37.62;101025.13;10496780;28;20520;-53
2020/12/05 10:40:15;;;;;;;17.38;6.28;;;;;;;0.21;37.80;101031.47;10498543;28;20048;-52
2020/12/05 10:45:18;;;;;;;21.58;6.15;;;;;;;0.01;38.56;101033.66;10498087;28;20056;-51
2020/12/05 10:50:20;;;;;;;15.85;5.07;;;;;;;-0.16;38.53;101029.63;10497276;28;20045;-51
2020/12/05 10:55:21;;;;;;;15.88;7.60;;;;;;;-0.22;38.88;101034.09;10497012;28;20068;-51
2020/12/05 11:00:24;;;;;;;17.10;6.80;;;;;;;-0.22;38.83;101034.94;10505361;28;20051;-55
2020/12/05 11:05:25;;;;;;;16.13;6.75;;;;;;;-0.18;39.24;101023.66;10504429;28;20142;-51
2020/12/05 11:10:27;;;;;;;12.98;4.78;;;;;;;-0.10;38.96;101032.09;10502745;28;20048;-53
2020/12/05 11:15:30;;;;;;;14.23;6.47;;;;;;;-0.24;39.10;101023.78;10503459;28;20091;-51
2020/12/05 11:20:31;;;;;;;10.27;4.60;;;;;;;-0.27;39.04;101031.59;10504330;28;20055;-51
2020/12/05 11:25:33;;;;;;;17.83;5.88;;;;;;;-0.24;39.30;101034.13;10504030;28;20049;-51
2020/12/05 11:30:36;;;;;;;13.70;5.13;;;;;;;-0.30;38.96;101034.25;10503746;28;20389;-51
2020/12/05 11:35:37;;;;;;;13.05;5.57;;;;;;;-0.32;39.36;101036.00;10503593;28;20064;-51
2020/12/05 11:40:39;;;;;;;15.85;6.50;;;;;;;-0.40;39.00;101030.13;10502741;28;20051;-50
2020/12/05 11:45:42;;;;;;;16.20;6.53;;;;;;;-0.38;39.39;101039.53;10501831;28;20503;-50
2020/12/05 11:50:43;;;;;;;13.40;5.45;;;;;;;-0.43;38.90;101040.50;10502467;28;20377;-54
2020/12/05 11:55:45;;;;;;;14.57;5.25;;;;;;;-0.52;38.71;101034.66;10502303;28;20072;-50
2020/12/05 12:00:47;;;;;;;15.00;5.13;;;;;;;-0.63;39.37;101044.31;10502588;28;20062;-51
2020/12/05 12:05:49;;;;;;;10.30;4.20;;;;;;;-0.69;39.14;101052.16;10501330;28;20067;-53
2020/12/05 12:10:51;;;;;;;19.48;4.53;;;;;;;-0.79;39.05;101046.31;10501160;28;20037;-53
2020/12/05 12:15:53;;;;;;;7.18;3.33;;;;;;;-0.84;39.37;101052.41;10501080;28;20063;-52
2020/12/05 12:20:55;;;;;;;9.98;4.30;;;;;;;-0.88;38.97;101048.19;10501082;28;20054;-50
2020/12/05 12:25:56;;;;;;;10.43;3.90;;;;;;;-0.97;39.04;101047.47;10500544;28;20048;-53
2020/12/05 12:30:59;;;;;;;14.10;5.22;;;;;;;-0.99;39.21;101053.50;10500306;28;20052;-53
2020/12/05 12:36:00;;;;;;;15.95;6.63;;;;;;;-0.98;39.56;101056.09;10502667;28;20499;-52
2020/12/05 12:41:02;;;;;;;9.70;3.90;;;;;;;-1.00;39.47;101057.84;10504393;28;20048;-51
2020/12/05 12:46:05;;;;;;;15.45;5.95;;;;;;;-1.06;39.44;101060.50;10499867;28;20052;-52
2020/12/05 12:51:08;;;;;;;15.27;6.45;;;;;;;-1.06;39.69;101063.09;10499165;28;20044;-55
2020/12/05 12:56:09;;;;;;;9.07;3.80;;;;;;;-1.13;39.60;101060.66;10493108;28;20056;-51
2020/12/05 13:01:17;;;;;;;14.15;6.30;;;;;;;-1.23;39.97;101068.53;10502047;28;20068;-50
2020/12/05 13:06:19;;;;;;;11.63;5.28;;;;;;;-1.34;39.78;101077.28;10500001;28;20053;-49
2020/12/05 13:11:21;;;;;;;12.60;5.25;;;;;;;-1.43;39.94;101084.28;10500170;28;20054;-52
2020/12/05 13:16:24;;;;;;;13.52;4.45;;;;;;;-1.52;40.04;101074.09;10500953;28;20055;-53
2020/12/05 13:21:26;;;;;;;8.07;3.00;;;;;;;-1.55;40.01;101081.84;10499544;28;20045;-55
2020/12/05 13:26:28;;;;;;;11.90;4.82;;;;;;;-1.59;39.82;101087.94;10500504;28;20090;-53
2020/12/05 13:31:32;;;;;;;14.90;4.95;;;;;;;-1.67;40.23;101084.59;10504518;28;20053;-57
2020/12/05 13:36:34;;;;;;;7.95;3.22;;;;;;;-1.72;40.08;101081.25;10504708;28;20055;-52
2020/12/05 13:41:35;;;;;;;10.27;3.63;;;;;;;-1.76;40.14;101101.03;10497777;28;20382;-51
2020/12/05 13:46:38;;;;;;;15.80;4.43;;;;;;;-1.75;40.17;101096.75;10497025;28;20040;-54
2020/12/05 13:51:39;;;;;;;13.07;5.10;;;;;;;-1.75;39.96;101101.91;10497810;28;20052;-50
2020/12/05 13:56:43;;;;;;;14.32;6.15;;;;;;;-1.80;40.40;101095.94;10494387;28;20388;-50
2020/12/05 14:01:45;;;;;;;12.20;5.70;;;;;;;-1.81;40.25;101094.25;10497599;28;20048;-52
2020/12/05 14:06:47;;;;;;;11.25;2.45;;;;;;;-1.87;40.54;101093.44;10498453;28;20078;-50
2020/12/05 14:11:49;;;;;;;16.67;5.70;;;;;;;-1.95;40.64;101096.97;10502580;28;20056;-52
2020/12/05 14:16:52;;;;;;;14.77;6.18;;;;;;;-1.96;40.88;101103.00;10499885;28;20044;-51
2020/12/05 14:21:53;;;;;;;11.67;3.73;;;;;;;-1.99;41.10;101098.72;10498317;28;20049;-50
2020/12/05 14:26:57;;;;;;;23.15;6.38;;;;;;;-2.03;40.93;101097.06;10497254;28;20420;-53
2020/12/05 14:32:00;;;;;;;15.40;7.65;;;;;;;-2.05;41.00;101098.81;10499620;28;20056;-51
2020/12/05 14:37:02;;;;;;;18.13;7.25;;;;;;;-2.05;41.08;101098.81;10507311;28;20059;-52
2020/12/05 14:42:03;;;;;;;17.40;6.25;;;;;;;-2.12;41.00;101105.75;10505106;28;20049;-52
2020/12/05 14:47:06;;;;;;;17.25;6.38;;;;;;;-2.24;41.39;101097.28;10504253;28;20053;-52
2020/12/05 14:52:08;;;;;;;16.85;6.78;;;;;;;-2.35;41.60;101108.53;10504062;28;20048;-53
2020/12/05 14:57:10;;;;;;;12.52;4.43;;;;;;;-2.41;41.83;101126.63;10503927;28;20080;-50
2020/12/05 15:02:12;;;;;;;19.10;6.10;;;;;;;-2.50;41.96;101121.56;10504255;28;20393;-50
2020/12/05 15:07:14;;;;;;;8.52;3.88;;;;;;;-2.52;42.01;101136.19;10503559;28;20485;-51
2020/12/05 15:12:15;;;;;;;7.32;3.13;;;;;;;-2.62;42.16;101122.53;10502760;28;20049;-52
2020/12/05 15:17:18;;;;;;;15.57;5.30;;;;;;;-2.67;42.43;101132.00;10503458;28;20044;-50
2020/12/05 15:22:20;;;;;;;11.57;4.55;;;;;;;-2.70;42.35;101131.19;10503185;28;20459;-54
2020/12/05 15:27:21;;;;;;;16.15;4.40;;;;;;;-2.71;42.28;101139.75;10502680;28;20363;-50
2020/12/05 15:32:24;;;;;;;13.63;4.90;;;;;;;-2.76;42.72;101144.97;10506219;28;20086;-55
2020/12/05 15:37:26;;;;;;;11.52;4.25;;;;;;;-2.79;42.86;101132.09;10504791;28;20173;-52
2020/12/05 15:42:28;;;;;;;12.98;4.53;;;;;;;-2.86;43.19;101135.59;10504593;28;20060;-51
2020/12/05 15:47:30;;;;;;;12.38;4.50;;;;;;;-2.89;42.96;101138.19;10508885;28;20044;-50
2020/12/05 15:52:35;;;;;;;13.63;6.57;;;;;;;-2.92;43.06;101133.91;10498077;28;20059;-50
2020/12/05 15:57:37;;;;;;;19.83;7.75;;;;;;;-2.93;43.04;101141.63;10502154;28;20156;-50
2020/12/05 16:02:40;;;;;;;16.20;6.88;;;;;;;-2.97;43.27;101140.81;10502507;28;20074;-49
2020/12/05 16:07:41;;;;;;;12.60;5.60;;;;;;;-2.99;43.21;101145.09;10495514;28;20055;-50
2020/12/05 16:12:43;;;;;;;17.13;7.10;;;;;;;-2.97;43.32;101147.69;10477076;28;20056;-53
2020/12/05 16:17:46;;;;;;;18.27;6.65;;;;;;;-2.97;43.47;101148.53;10502063;28;20441;-53
2020/12/05 16:22:47;;;;;;;17.35;6.70;;;;;;;-2.98;43.32;101159.69;10503762;28;20044;-49
2020/12/05 16:27:49;;;;;;;15.90;6.63;;;;;;;-2.97;43.30;101155.41;10500426;28;20048;-50
2020/12/05 16:32:51;;;;;;;17.80;6.35;;;;;;;-3.00;43.34;101151.13;10500274;28;20052;-53
2020/12/05 16:37:53;;;;;;;18.38;7.03;;;;;;;-3.03;43.71;101164.84;10476874;28;20367;-51
2020/12/05 16:42:55;;;;;;;14.02;5.90;;;;;;;-3.06;43.47;101157.16;10488431;28;20385;-50
2020/12/05 16:47:58;;;;;;;17.70;6.07;;;;;;;-3.08;43.64;101161.47;10499553;28;20045;-49
2020/12/05 16:53:00;;;;;;;7.95;2.85;;;;;;;-3.13;43.69;101159.78;10497282;28;20044;-51
2020/12/05 16:58:02;;;;;;;18.67;5.95;;;;;;;-3.13;43.84;101164.94;10498751;28;20401;-52
2020/12/05 17:03:04;;;;;;;12.93;4.32;;;;;;;-3.18;43.70;101162.38;10499414;28;20059;-52
2020/12/05 17:08:06;;;;;;;8.70;3.90;;;;;;;-3.26;43.77;101165.00;10498685;28;20389;-52
2020/12/05 17:13:08;;;;;;;12.20;4.10;;;;;;;-3.31;44.13;101168.44;10498692;28;20144;-50
2020/12/05 17:18:10;;;;;;;14.65;4.95;;;;;;;-3.41;43.96;101162.50;10498856;28;20054;-52
2020/12/05 17:23:12;;;;;;;11.07;4.30;;;;;;;-3.45;44.22;101165.06;10499455;28;20044;-51
2020/12/05 17:28:14;;;;;;;15.55;5.65;;;;;;;-3.45;44.25;101167.63;10500088;28;20055;-50
2020/12/05 17:33:16;;;;;;;16.40;5.40;;;;;;;-3.44;44.14;101170.22;10500127;28;20048;-52
2020/12/05 17:38:18;;;;;;;15.18;6.53;;;;;;;-3.41;44.17;101180.50;10498174;28;20052;-49
2020/12/05 17:43:20;;;;;;;11.93;4.47;;;;;;;-3.44;44.22;101177.94;10500620;28;20062;-49
2020/12/05 17:48:22;;;;;;;15.82;4.97;;;;;;;-3.47;44.53;101173.66;10498238;28;20393;-51
2020/12/05 17:53:24;;;;;;;14.80;6.45;;;;;;;-3.49;44.30;101171.94;10498228;28;20052;-48
2020/12/05 17:58:26;;;;;;;17.00;4.80;;;;;;;-3.53;44.30;101175.41;10498214;28;20072;-52
2020/12/05 18:03:28;;;;;;;14.88;5.80;;;;;;;-3.54;44.46;101178.81;10497548;28;20065;-52
2020/12/05 18:08:30;;;;;;;14.57;4.05;;;;;;;-3.57;44.80;101178.81;10504759;28;20040;-52
2020/12/05 18:13:31;;;;;;;11.93;4.72;;;;;;;-3.65;44.88;101181.44;10505539;28;20052;-49
2020/12/05 18:18:34;;;;;;;13.20;4.20;;;;;;;-3.70;45.17;101176.28;10506098;28;20066;-49
2020/12/05 18:23:36;;;;;;;14.65;5.10;;;;;;;-3.75;45.21;101188.31;10505868;28;20512;-49
2020/12/05 18:28:38;;;;;;;6.22;2.75;;;;;;;-3.81;45.30;101190.06;10506327;28;20044;-51
2020/12/05 18:33:41;;;;;;;8.07;3.37;;;;;;;-3.83;45.45;101202.03;10506544;28;20456;-51
2020/12/05 18:38:42;;;;;;;10.03;3.90;;;;;;;-3.85;45.36;101202.03;10505465;28;20060;-50
2020/12/05 18:43:44;;;;;;;3.47;1.58;;;;;;;-3.85;45.50;101199.47;10504402;28;20052;-50
2020/12/05 18:48:48;;;;;;;10.18;3.65;;;;;;;-3.91;45.40;101204.59;10504968;28;20040;-51
2020/12/05 18:53:49;;;;;;;11.05;4.43;;;;;;;-3.97;45.86;101199.50;10503962;28;20062;-49
2020/12/05 18:58:51;;;;;;;6.00;1.80;;;;;;;-4.03;45.80;101202.09;10505933;28;20041;-50
2020/12/05 19:03:55;;;;;;;6.47;2.97;;;;;;;-4.05;45.71;101196.09;10505766;28;20060;-50
2020/12/05 19:08:57;;;;;;;11.32;4.40;;;;;;;-4.10;46.00;101203.78;10503612;28;20049;-54
2020/12/05 19:13:58;;;;;;;6.53;2.60;;;;;;;-4.15;45.95;101200.38;10503008;28;20056;-52
2020/12/05 19:19:01;;;;;;;8.20;3.00;;;;;;;-4.19;46.04;101212.38;10503010;28;20647;-53
2020/12/05 19:24:03;;;;;;;9.38;3.70;;;;;;;-4.27;46.35;101216.66;10504543;28;20052;-49
2020/12/05 19:29:05;;;;;;;10.90;3.08;;;;;;;-4.34;46.50;101234.59;10504794;28;20040;-50
2020/12/05 19:34:07;;;;;;;10.40;2.92;;;;;;;-4.38;46.51;101233.75;10503013;28;20048;-52
2020/12/05 19:39:09;;;;;;;9.30;3.87;;;;;;;-4.41;46.50;101233.75;10503001;28;20054;-51
2020/12/05 19:44:11;;;;;;;6.55;3.05;;;;;;;-4.42;46.39;101238.03;10504728;28;20389;-50
2020/12/05 19:49:14;;;;;;;8.07;4.03;;;;;;;-4.45;46.58;101240.59;10501304;28;20053;-51
2020/12/05 19:54:15;;;;;;;10.37;3.57;;;;;;;-4.45;46.52;101242.31;10501418;28;20147;-49
2020/12/05 19:59:17;;;;;;;9.40;2.60;;;;;;;-4.47;46.46;101244.00;10501232;28;20140;-49
2020/12/05 20:04:20;;;;;;;7.68;2.90;;;;;;;-4.52;46.61;101240.59;10500493;28;20053;-52
2020/12/05 20:09:21;;;;;;;7.57;2.77;;;;;;;-4.55;46.75;101245.72;10501662;28;20147;-49
2020/12/05 20:14:23;;;;;;;7.15;2.75;;;;;;;-4.61;46.84;101248.28;10500944;28;20428;-50
2020/12/05 20:19:26;;;;;;;11.40;4.47;;;;;;;-4.67;46.96;101247.41;10500459;28;20148;-51
2020/12/05 20:24:27;;;;;;;11.10;4.65;;;;;;;-4.71;46.93;101258.53;10501341;28;20062;-50
2020/12/05 20:29:29;;;;;;;8.98;3.35;;;;;;;-4.68;46.55;101262.78;10503781;28;20048;-49
2020/12/05 20:34:32;;;;;;;11.68;3.55;;;;;;;-4.74;46.97;101261.09;10504067;28;20536;-49
2020/12/05 20:39:33;;;;;;;6.27;2.60;;;;;;;-4.79;46.94;101267.91;10502173;28;20052;-50
2020/12/05 20:44:35;;;;;;;9.93;4.18;;;;;;;-4.81;46.96;101273.88;10500717;28;20298;-50
2020/12/05 20:49:38;;;;;;;11.30;2.95;;;;;;;-4.82;46.78;101273.03;10499638;28;20040;-51
2020/12/05 20:54:39;;;;;;;10.83;3.10;;;;;;;-4.85;46.87;101278.16;10499754;28;20070;-51
2020/12/05 20:59:41;;;;;;;6.03;3.30;;;;;;;-4.91;46.85;101273.84;10499316;28;20049;-51
2020/12/05 21:04:43;;;;;;;4.22;1.63;;;;;;;-4.91;46.94;101273.00;10499209;28;20044;-52
2020/12/05 21:09:45;;;;;;;10.10;3.90;;;;;;;-4.91;46.97;101278.13;10498871;28;20051;-52
2020/12/05 21:14:47;;;;;;;3.80;2.53;;;;;;;-4.91;46.84;101289.25;10499892;28;20059;-54
2020/12/05 21:19:49;;;;;;;7.28;3.30;;;;;;;-4.94;46.88;101288.38;10500334;28;20474;-53
2020/12/05 21:24:51;;;;;;;9.25;3.38;;;;;;;-4.96;46.67;101295.19;10498078;28;20057;-49
2020/12/05 21:29:52;;;;;;;4.93;2.00;;;;;;;-4.96;46.58;101290.06;10498919;28;20051;-50
2020/12/05 21:34:55;;;;;;;7.70;2.58;;;;;;;-4.98;46.51;101295.22;10497028;28;20374;-51
2020/12/05 21:39:57;;;;;;;3.87;2.17;;;;;;;-4.96;46.41;101287.50;10497661;28;20045;-52
2020/12/05 21:44:58;;;;;;;10.25;2.70;;;;;;;-4.96;46.54;101280.66;10497986;28;20062;-50
2020/12/05 21:50:04;;;;;;;6.55;3.13;;;;;;;-4.93;46.37;101282.38;10496409;28;20040;-50
2020/12/05 21:55:06;;;;;;;6.80;2.35;;;;;;;-4.92;46.43;101286.69;10497654;28;20087;-53
2020/12/05 22:00:07;;;;;;;8.02;2.67;;;;;;;-4.96;46.39;101285.78;10498731;28;20041;-52
2020/12/05 22:05:10;;;;;;;10.45;3.90;;;;;;;-4.99;46.19;101279.81;10497218;28;20053;-52
2020/12/05 22:10:11;;;;;;;6.32;2.35;;;;;;;-5.06;46.24;101288.34;10498164;28;20048;-49
2020/12/05 22:15:14;;;;;;;5.35;1.73;;;;;;;-5.10;46.29;101292.59;10497421;28;20131;-51
2020/12/05 22:20:16;;;;;;;4.18;2.17;;;;;;;-5.13;45.99;101284.88;10496698;28;20044;-49
2020/12/05 22:25:18;;;;;;;5.97;2.93;;;;;;;-5.16;45.87;101288.28;10497368;28;20143;-49
2020/12/05 22:30:20;;;;;;;7.38;1.95;;;;;;;-5.15;46.10;101289.16;10498393;28;20052;-51
2020/12/05 22:35:29;;;;;;;6.90;2.90;;;;;;;-5.17;45.81;101296.84;10497660;28;20053;-52
2020/12/05 22:40:32;;;;;;;4.13;2.10;;;;;;;-5.19;45.96;101293.41;10497605;28;20072;-52
2020/12/05 22:45:33;;;;;;;5.03;2.43;;;;;;;-5.22;45.83;101295.97;10499247;28;20068;-52
2020/12/05 22:50:36;;;;;;;8.23;2.72;;;;;;;-5.22;45.72;101293.38;10496509;28;20708;-50
2020/12/05 22:55:38;;;;;;;6.57;2.23;;;;;;;-5.24;45.91;101291.66;10502769;28;20060;-50
2020/12/05 23:00:45;;;;;;;9.07;3.00;;;;;;;-5.28;45.86;101277.97;10505659;28;20393;-52